Time;durP1;ratioP1;P1;durP2;ratioP2;P2;SDS_P1;SDS_P2;PMS_P1;PMS_P2;Temp;Humidity;BMP_temperature;BMP_pressure;BME280_temperature;BME280_humidity;BME280_pressure;Samples;Min_cycle;Max_cycle;Signal;HPM_P1;HPM_P2
2022/09/06 00:01:13;;;;;;;5.13;2.70;;;;;;;;;;4982471;28;20022;-78
2022/09/06 00:03:39;;;;;;;4.13;2.22;;;;;;;;;;4989455;28;20026;-78
2022/09/06 00:06:15;;;;;;;4.55;2.10;;;;;;;;;;4987692;28;20034;-78
2022/09/06 00:08:43;;;;;;;3.28;2.10;;;;;;;;;;4988992;28;20057;-77
2022/09/06 00:11:09;;;;;;;3.70;2.20;;;;;;;;;;4988823;28;20105;-85
2022/09/06 00:13:35;;;;;;;4.40;2.50;;;;;;;;;;5002585;28;20018;-86
2022/09/06 00:16:10;;;;;;;5.43;2.40;;;;;;;;;;4987634;28;20057;-75
2022/09/06 00:18:35;;;;;;;4.32;2.28;;;;;;;;;;4990621;28;20023;-76
2022/09/06 00:21:03;;;;;;;3.85;2.05;;;;;;;;;;4985262;28;20046;-86
2022/09/06 00:23:28;;;;;;;3.33;2.00;;;;;;;;;;5001798;28;20389;-82
2022/09/06 00:26:01;;;;;;;2.90;1.70;;;;;;;;;;4988646;28;20027;-78
2022/09/06 00:28:27;;;;;;;2.60;1.80;;;;;;;;;;5001346;28;20116;-77
2022/09/06 00:30:52;;;;;;;4.72;1.80;;;;;;;;;;4998197;28;20613;-76
2022/09/06 00:33:17;;;;;;;3.08;1.90;;;;;;;;;;4979870;28;20080;-77
2022/09/06 00:35:46;;;;;;;4.03;2.50;;;;;;;;;;4986084;28;20125;-79
2022/09/06 00:38:11;;;;;;;4.10;2.40;;;;;;;;;;4987804;28;20022;-78
2022/09/06 00:40:37;;;;;;;3.33;2.42;;;;;;;;;;4987298;28;20038;-87
2022/09/06 00:43:02;;;;;;;2.80;2.00;;;;;;;;;;4989129;28;20482;-86
2022/09/06 00:45:29;;;;;;;3.78;2.72;;;;;;;;;;4982337;28;20026;-77
2022/09/06 00:47:56;;;;;;;3.75;2.70;;;;;;;;;;5005106;28;20022;-78
2022/09/06 00:50:22;;;;;;;5.80;2.58;;;;;;;;;;4989135;28;20136;-87
2022/09/06 00:52:51;;;;;;;4.80;3.15;;;;;;;;;;4990394;28;20034;-87
2022/09/06 00:55:17;;;;;;;4.47;2.63;;;;;;;;;;4983767;28;20030;-78
2022/09/06 00:57:45;;;;;;;4.75;2.60;;;;;;;;;;4984708;28;20494;-77
2022/09/06 01:00:11;;;;;;;4.20;2.30;;;;;;;;;;4988279;28;20022;-78
2022/09/06 01:02:36;;;;;;;5.57;2.40;;;;;;;;;;4984163;28;20532;-78
2022/09/06 01:05:02;;;;;;;4.70;2.33;;;;;;;;;;4990279;28;20037;-85
2022/09/06 01:07:54;;;;;;;4.88;2.38;;;;;;;;;;4994569;28;20418;-77
2022/09/06 01:10:28;;;;;;;3.60;2.25;;;;;;;;;;4987834;28;20494;-80
2022/09/06 01:13:10;;;;;;;4.13;2.20;;;;;;;;;;4984366;28;20022;-78
2022/09/06 01:15:48;;;;;;;3.00;1.92;;;;;;;;;;4985110;28;20026;-80
2022/09/06 01:18:29;;;;;;;3.25;2.30;;;;;;;;;;5000188;28;20483;-77
2022/09/06 01:21:17;;;;;;;3.33;2.17;;;;;;;;;;4983456;28;20109;-82
2022/09/06 01:24:07;;;;;;;3.65;2.22;;;;;;;;;;4996191;28;20034;-77
2022/09/06 01:26:35;;;;;;;3.67;2.22;;;;;;;;;;4986746;28;20057;-87
2022/09/06 01:29:03;;;;;;;3.78;2.58;;;;;;;;;;5002884;28;20394;-77
2022/09/06 01:31:35;;;;;;;3.55;2.30;;;;;;;;;;4999877;28;20030;-77
2022/09/06 01:34:06;;;;;;;4.73;2.33;;;;;;;;;;4985485;28;20034;-78
2022/09/06 01:36:39;;;;;;;4.32;2.60;;;;;;;;;;4989348;28;20085;-76
2022/09/06 01:39:04;;;;;;;3.67;2.05;;;;;;;;;;4983885;28;20569;-77
2022/09/06 01:41:30;;;;;;;4.90;2.60;;;;;;;;;;4985515;28;20117;-79
2022/09/06 01:43:56;;;;;;;4.45;2.30;;;;;;;;;;5001874;28;20026;-78
2022/09/06 01:46:32;;;;;;;3.88;2.33;;;;;;;;;;4986689;28;20034;-77
2022/09/06 01:49:16;;;;;;;3.42;2.30;;;;;;;;;;4999346;28;20042;-77
2022/09/06 01:51:44;;;;;;;4.35;2.78;;;;;;;;;;4986859;28;20082;-79
2022/09/06 01:54:38;;;;;;;4.47;2.88;;;;;;;;;;5002137;28;20073;-78
2022/09/06 01:57:33;;;;;;;7.57;3.28;;;;;;;;;;4988902;28;20475;-75
2022/09/06 02:00:10;;;;;;;4.32;2.80;;;;;;;;;;5001042;28;20050;-78
2022/09/06 02:02:41;;;;;;;4.50;3.13;;;;;;;;;;4985275;28;20038;-78
2022/09/06 02:05:19;;;;;;;5.15;3.30;;;;;;;;;;4999376;28;20078;-86
2022/09/06 02:07:47;;;;;;;4.20;2.47;;;;;;;;;;5002170;28;20058;-87
2022/09/06 02:10:24;;;;;;;5.65;3.63;;;;;;;;;;4985510;28;20133;-87
2022/09/06 02:12:53;;;;;;;3.20;2.28;;;;;;;;;;4979941;28;20022;-78
2022/09/06 02:15:24;;;;;;;3.30;2.38;;;;;;;;;;4992669;28;20171;-78
2022/09/06 02:17:59;;;;;;;6.68;3.45;;;;;;;;;;4987976;28;20038;-77
2022/09/06 02:20:30;;;;;;;3.78;2.63;;;;;;;;;;4986752;28;20026;-78
2022/09/06 02:22:58;;;;;;;5.03;2.47;;;;;;;;;;4986874;28;20027;-77
2022/09/06 02:25:30;;;;;;;4.70;2.90;;;;;;;;;;4998981;28;20076;-76
2022/09/06 02:27:55;;;;;;;5.87;3.00;;;;;;;;;;4986665;28;20030;-85
2022/09/06 02:30:21;;;;;;;5.55;3.47;;;;;;;;;;4985877;28;20602;-77
2022/09/06 02:32:56;;;;;;;3.83;3.00;;;;;;;;;;4989213;28;20391;-76
2022/09/06 02:35:21;;;;;;;5.18;3.15;;;;;;;;;;4985189;28;20054;-77
2022/09/06 02:37:47;;;;;;;4.82;3.20;;;;;;;;;;4984236;28;20137;-77
2022/09/06 02:40:13;;;;;;;4.10;3.25;;;;;;;;;;4988951;28;20026;-79
2022/09/06 02:42:39;;;;;;;4.68;3.00;;;;;;;;;;4984915;28;20479;-75
2022/09/06 02:45:05;;;;;;;4.45;2.80;;;;;;;;;;4988321;28;20061;-82
2022/09/06 02:47:30;;;;;;;4.90;3.00;;;;;;;;;;4986477;28;20088;-76
2022/09/06 02:49:56;;;;;;;3.50;2.70;;;;;;;;;;4988557;28;20047;-78
2022/09/06 02:52:21;;;;;;;4.93;3.28;;;;;;;;;;4987910;28;20026;-78
2022/09/06 02:54:47;;;;;;;4.60;3.00;;;;;;;;;;4988029;28;20042;-76
2022/09/06 02:57:12;;;;;;;4.18;3.00;;;;;;;;;;4986096;28;20487;-87
2022/09/06 02:59:38;;;;;;;4.38;3.03;;;;;;;;;;4989471;28;20482;-75
2022/09/06 03:02:03;;;;;;;4.78;2.85;;;;;;;;;;4985447;28;20049;-76
2022/09/06 03:04:29;;;;;;;4.35;3.00;;;;;;;;;;4985981;28;20027;-87
2022/09/06 03:06:55;;;;;;;4.13;2.97;;;;;;;;;;4988663;28;20050;-86
2022/09/06 03:09:20;;;;;;;4.13;2.83;;;;;;;;;;4990023;28;20044;-79
2022/09/06 03:11:46;;;;;;;6.03;3.35;;;;;;;;;;4989641;28;20038;-78
2022/09/06 03:14:11;;;;;;;4.72;3.20;;;;;;;;;;4987866;28;20022;-78
2022/09/06 03:16:38;;;;;;;4.88;3.30;;;;;;;;;;4987215;28;20034;-86
2022/09/06 03:19:03;;;;;;;4.75;3.53;;;;;;;;;;4982884;28;20029;-77
2022/09/06 03:21:28;;;;;;;5.22;2.90;;;;;;;;;;4989586;28;20108;-87
2022/09/06 03:23:54;;;;;;;4.07;3.00;;;;;;;;;;4990505;28;20034;-78
2022/09/06 03:26:19;;;;;;;4.85;3.40;;;;;;;;;;4989994;28;20031;-79
2022/09/06 03:28:45;;;;;;;5.65;3.67;;;;;;;;;;4988532;28;20077;-79
2022/09/06 03:31:10;;;;;;;4.55;3.40;;;;;;;;;;4988221;28;20026;-87
2022/09/06 03:33:35;;;;;;;4.18;3.05;;;;;;;;;;4985190;28;20030;-79
2022/09/06 03:36:02;;;;;;;5.70;4.05;;;;;;;;;;4988291;28;20511;-76
2022/09/06 03:38:28;;;;;;;6.25;3.05;;;;;;;;;;5004644;28;20038;-76
2022/09/06 03:40:53;;;;;;;4.90;3.10;;;;;;;;;;4991860;28;20073;-79
2022/09/06 03:43:20;;;;;;;3.83;2.80;;;;;;;;;;4988589;28;20097;-78
2022/09/06 03:45:47;;;;;;;5.18;3.25;;;;;;;;;;4985778;28;20038;-76
2022/09/06 03:48:14;;;;;;;5.25;3.00;;;;;;;;;;4988604;28;20037;-77
2022/09/06 03:50:47;;;;;;;5.20;2.90;;;;;;;;;;4984527;28;20394;-76
2022/09/06 03:53:14;;;;;;;4.20;3.03;;;;;;;;;;4989352;28;20058;-87
2022/09/06 03:55:39;;;;;;;5.25;3.25;;;;;;;;;;4987473;28;20033;-76
2022/09/06 03:58:05;;;;;;;4.82;3.28;;;;;;;;;;5004985;28;20489;-78
2022/09/06 04:00:32;;;;;;;4.30;2.92;;;;;;;;;;5002351;28;20026;-75
2022/09/06 04:02:57;;;;;;;4.43;3.30;;;;;;;;;;4989247;28;20437;-77
2022/09/06 04:05:23;;;;;;;4.47;3.20;;;;;;;;;;4987972;28;20034;-78
2022/09/06 04:07:48;;;;;;;6.05;2.90;;;;;;;;;;4990259;28;20529;-77
2022/09/06 04:10:14;;;;;;;5.07;3.13;;;;;;;;;;4990988;28;20033;-77
2022/09/06 04:12:39;;;;;;;4.35;3.00;;;;;;;;;;5002707;28;20478;-87
2022/09/06 04:15:05;;;;;;;4.60;3.10;;;;;;;;;;4980588;28;20557;-79
2022/09/06 04:17:30;;;;;;;4.47;3.13;;;;;;;;;;4989421;28;20371;-79
2022/09/06 04:19:56;;;;;;;4.45;3.15;;;;;;;;;;4991826;28;20101;-80
2022/09/06 04:22:21;;;;;;;4.05;2.90;;;;;;;;;;4989814;28;20069;-75
2022/09/06 04:24:47;;;;;;;6.30;3.20;;;;;;;;;;4986291;28;20105;-77
2022/09/06 04:27:12;;;;;;;5.15;3.47;;;;;;;;;;4999073;28;20061;-78
2022/09/06 04:29:38;;;;;;;4.50;3.40;;;;;;;;;;4986335;28;20160;-77
2022/09/06 04:32:03;;;;;;;6.55;3.05;;;;;;;;;;4982456;28;20026;-80
2022/09/06 04:34:28;;;;;;;4.90;3.08;;;;;;;;;;4990730;28;20053;-79
2022/09/06 04:36:54;;;;;;;5.47;3.22;;;;;;;;;;4980884;28;20054;-78
2022/09/06 04:39:19;;;;;;;4.93;3.60;;;;;;;;;;5001145;28;20084;-79
2022/09/06 04:41:44;;;;;;;4.82;3.20;;;;;;;;;;4988954;28;20399;-86
2022/09/06 04:44:10;;;;;;;4.70;3.20;;;;;;;;;;4988866;28;20029;-78
2022/09/06 04:46:35;;;;;;;4.50;3.00;;;;;;;;;;4986598;28;20077;-79
2022/09/06 04:49:01;;;;;;;3.85;2.95;;;;;;;;;;4986972;28;20034;-79
2022/09/06 04:51:26;;;;;;;4.68;3.75;;;;;;;;;;4990808;28;20034;-86
2022/09/06 04:53:52;;;;;;;4.38;3.10;;;;;;;;;;4987803;28;20381;-80
2022/09/06 04:56:22;;;;;;;7.28;3.88;;;;;;;;;;4987153;28;20639;-81
2022/09/06 04:58:50;;;;;;;4.88;4.10;;;;;;;;;;4986245;28;20100;-78
2022/09/06 05:01:16;;;;;;;5.78;4.20;;;;;;;;;;4985600;28;20371;-78
2022/09/06 05:03:42;;;;;;;5.50;3.10;;;;;;;;;;4989330;28;20038;-78
2022/09/06 05:06:19;;;;;;;4.47;3.30;;;;;;;;;;4984608;28;20038;-79
2022/09/06 05:08:45;;;;;;;4.63;3.38;;;;;;;;;;4988656;28;20050;-76
2022/09/06 05:11:11;;;;;;;3.92;2.97;;;;;;;;;;4983822;28;20082;-78
2022/09/06 05:13:37;;;;;;;4.78;3.47;;;;;;;;;;4984545;28;20085;-78
2022/09/06 05:16:04;;;;;;;4.95;3.13;;;;;;;;;;4984184;28;20030;-76
2022/09/06 05:18:30;;;;;;;7.68;3.28;;;;;;;;;;4988747;28;20505;-79
2022/09/06 05:20:56;;;;;;;5.85;3.45;;;;;;;;;;4981655;28;20034;-79
2022/09/06 05:23:22;;;;;;;7.28;4.38;;;;;;;;;;4987237;28;20027;-80
2022/09/06 05:25:48;;;;;;;7.78;4.10;;;;;;;;;;4987659;28;20516;-81
2022/09/06 05:28:14;;;;;;;6.72;3.35;;;;;;;;;;4987110;28;20026;-82
2022/09/06 05:30:42;;;;;;;5.53;3.20;;;;;;;;;;4990081;28;20236;-78
2022/09/06 05:33:09;;;;;;;6.00;3.35;;;;;;;;;;4987530;28;20026;-76
2022/09/06 05:35:35;;;;;;;6.75;3.50;;;;;;;;;;4985531;28;20026;-78
2022/09/06 05:38:00;;;;;;;5.18;3.60;;;;;;;;;;4986964;28;20037;-79
2022/09/06 05:40:26;;;;;;;5.00;3.40;;;;;;;;;;4988719;28;20027;-77
2022/09/06 05:42:51;;;;;;;4.90;3.50;;;;;;;;;;4988250;28;20058;-79
2022/09/06 05:45:16;;;;;;;4.70;3.63;;;;;;;;;;4987795;28;20089;-86
2022/09/06 05:47:42;;;;;;;6.32;4.20;;;;;;;;;;4990954;28;20033;-78
2022/09/06 05:50:08;;;;;;;5.90;3.70;;;;;;;;;;4991821;28;20034;-76
2022/09/06 05:52:34;;;;;;;5.65;3.72;;;;;;;;;;4988582;28;20074;-84
2022/09/06 05:54:59;;;;;;;6.05;4.38;;;;;;;;;;4990113;28;20072;-78
2022/09/06 05:57:25;;;;;;;6.57;5.53;;;;;;;;;;4988232;28;20469;-85
2022/09/06 05:59:52;;;;;;;7.78;5.25;;;;;;;;;;4993605;28;20022;-78
2022/09/06 06:02:21;;;;;;;5.72;5.10;;;;;;;;;;4986452;28;20037;-78
2022/09/06 06:04:46;;;;;;;5.90;4.18;;;;;;;;;;4990950;28;20038;-77
2022/09/06 06:07:12;;;;;;;6.13;4.70;;;;;;;;;;4985743;28;20069;-79
2022/09/06 06:09:37;;;;;;;5.63;3.88;;;;;;;;;;4983924;28;20410;-76
2022/09/06 06:12:03;;;;;;;8.25;4.10;;;;;;;;;;4991302;28;20030;-81
2022/09/06 06:14:29;;;;;;;8.98;5.28;;;;;;;;;;4993466;28;20109;-77
2022/09/06 06:16:54;;;;;;;6.68;4.10;;;;;;;;;;4990709;28;20034;-87
2022/09/06 06:19:19;;;;;;;5.90;4.07;;;;;;;;;;4989612;28;20026;-87
2022/09/06 06:21:45;;;;;;;6.45;4.25;;;;;;;;;;4989126;28;20018;-77
2022/09/06 06:24:10;;;;;;;7.03;5.07;;;;;;;;;;4993926;28;20394;-83
2022/09/06 06:26:36;;;;;;;7.55;4.57;;;;;;;;;;5004298;28;20049;-79
2022/09/06 06:29:02;;;;;;;6.75;3.90;;;;;;;;;;4985888;28;20436;-80
2022/09/06 06:31:29;;;;;;;7.00;4.82;;;;;;;;;;4988029;28;20041;-77
2022/09/06 06:33:54;;;;;;;6.18;4.70;;;;;;;;;;4987205;28;20117;-77
2022/09/06 06:36:23;;;;;;;6.15;4.50;;;;;;;;;;4990488;28;20443;-78
2022/09/06 06:38:52;;;;;;;8.48;5.05;;;;;;;;;;4994709;28;20034;-87
2022/09/06 06:41:20;;;;;;;6.10;4.70;;;;;;;;;;4993517;28;20438;-85
2022/09/06 06:43:45;;;;;;;6.78;4.55;;;;;;;;;;4994493;28;20030;-79
2022/09/06 06:46:16;;;;;;;6.78;4.32;;;;;;;;;;5010047;28;20532;-85
2022/09/06 06:48:43;;;;;;;7.72;5.35;;;;;;;;;;4993409;28;20478;-86
2022/09/06 06:51:17;;;;;;;6.95;5.45;;;;;;;;;;4987300;28;20034;-79
2022/09/06 06:53:46;;;;;;;6.13;5.10;;;;;;;;;;5005568;28;20442;-80
2022/09/06 06:56:29;;;;;;;10.02;5.63;;;;;;;;;;4992235;28;20030;-78
2022/09/06 06:58:56;;;;;;;6.35;5.32;;;;;;;;;;4994833;28;20026;-75
2022/09/06 07:01:22;;;;;;;7.82;5.30;;;;;;;;;;4990891;28;20088;-84
2022/09/06 07:03:48;;;;;;;7.15;5.40;;;;;;;;;;4993409;28;20031;-80
2022/09/06 07:06:14;;;;;;;7.50;6.40;;;;;;;;;;4995223;28;20092;-79
2022/09/06 07:08:41;;;;;;;6.43;5.25;;;;;;;;;;4992779;28;20057;-80
2022/09/06 07:11:11;;;;;;;7.50;5.95;;;;;;;;;;4990272;28;20022;-78
2022/09/06 07:13:37;;;;;;;11.02;7.50;;;;;;;;;;4988096;28;20710;-83
2022/09/06 07:16:22;;;;;;;9.57;6.57;;;;;;;;;;4994460;28;20121;-83
2022/09/06 07:18:52;;;;;;;10.70;7.05;;;;;;;;;;4993957;28;20041;-77
2022/09/06 07:21:20;;;;;;;7.50;6.47;;;;;;;;;;4993499;28;20022;-77
2022/09/06 07:23:47;;;;;;;8.43;6.75;;;;;;;;;;4992564;28;20038;-75
2022/09/06 07:26:17;;;;;;;9.27;7.32;;;;;;;;;;4993509;28;20032;-79
2022/09/06 07:28:42;;;;;;;10.45;7.30;;;;;;;;;;4994649;28;20032;-77
2022/09/06 07:31:08;;;;;;;8.75;7.32;;;;;;;;;;5009108;28;20034;-77
2022/09/06 07:33:35;;;;;;;10.32;7.05;;;;;;;;;;4992466;28;20054;-77
2022/09/06 07:36:03;;;;;;;9.68;7.00;;;;;;;;;;4993655;28;20073;-80
2022/09/06 07:38:29;;;;;;;6.90;6.10;;;;;;;;;;4993892;28;20034;-79
2022/09/06 07:40:59;;;;;;;9.60;8.02;;;;;;;;;;4993299;28;20026;-77
2022/09/06 07:43:26;;;;;;;9.07;6.78;;;;;;;;;;5006743;28;20371;-80
2022/09/06 07:46:07;;;;;;;9.75;7.07;;;;;;;;;;4991846;28;20022;-80
2022/09/06 07:48:38;;;;;;;7.78;6.93;;;;;;;;;;4991918;28;20089;-74
2022/09/06 07:51:03;;;;;;;10.32;7.28;;;;;;;;;;4992183;28;20066;-79
2022/09/06 07:53:29;;;;;;;7.40;6.07;;;;;;;;;;5008391;28;20060;-77
2022/09/06 07:55:55;;;;;;;7.63;5.90;;;;;;;;;;4992005;28;20033;-84
2022/09/06 07:58:21;;;;;;;9.02;6.43;;;;;;;;;;4994110;28;20118;-79
2022/09/06 08:00:47;;;;;;;8.85;6.80;;;;;;;;;;4991490;28;20030;-75
2022/09/06 08:03:12;;;;;;;8.98;6.30;;;;;;;;;;4992894;28;20065;-78
2022/09/06 08:05:38;;;;;;;7.13;5.45;;;;;;;;;;4990737;28;20528;-75
2022/09/06 08:08:03;;;;;;;6.93;5.40;;;;;;;;;;4996513;28;20042;-75
2022/09/06 08:10:28;;;;;;;7.18;5.43;;;;;;;;;;4991959;28;20037;-75
2022/09/06 08:12:54;;;;;;;8.32;6.03;;;;;;;;;;4989724;28;20056;-80
2022/09/06 08:15:20;;;;;;;7.57;5.60;;;;;;;;;;4991244;28;20058;-76
2022/09/06 08:17:49;;;;;;;7.15;6.00;;;;;;;;;;5005888;28;20026;-80
2022/09/06 08:20:15;;;;;;;8.20;6.13;;;;;;;;;;4988322;28;20026;-81
2022/09/06 08:22:41;;;;;;;7.55;6.07;;;;;;;;;;4998030;28;20034;-75
2022/09/06 08:25:07;;;;;;;8.02;5.50;;;;;;;;;;4993697;28;20077;-78
2022/09/06 08:27:33;;;;;;;7.05;5.50;;;;;;;;;;4989905;28;20037;-85
2022/09/06 08:29:58;;;;;;;8.70;6.00;;;;;;;;;;4989891;28;20550;-85
2022/09/06 08:32:24;;;;;;;7.78;5.63;;;;;;;;;;4985469;28;20022;-83
2022/09/06 08:34:49;;;;;;;6.97;5.07;;;;;;;;;;4991987;28;20169;-77
2022/09/06 08:37:15;;;;;;;7.53;5.15;;;;;;;;;;4992002;28;20026;-85
2022/09/06 08:39:40;;;;;;;6.90;5.75;;;;;;;;;;4994200;28;20108;-79
2022/09/06 08:42:07;;;;;;;7.47;4.88;;;;;;;;;;4988302;28;20125;-78
2022/09/06 08:44:41;;;;;;;6.07;4.80;;;;;;;;;;4990516;28;20038;-84
2022/09/06 08:47:11;;;;;;;7.53;4.70;;;;;;;;;;4991705;28;20459;-77
2022/09/06 08:49:46;;;;;;;7.90;4.55;;;;;;;;;;4990406;28;20498;-85
2022/09/06 08:52:26;;;;;;;5.20;3.78;;;;;;;;;;5005519;28;20493;-77
2022/09/06 08:55:14;;;;;;;5.78;3.60;;;;;;;;;;4990655;28;20030;-77
2022/09/06 08:58:12;;;;;;;6.20;4.03;;;;;;;;;;4989050;28;20026;-84
2022/09/06 09:00:38;;;;;;;5.22;3.92;;;;;;;;;;4990711;28;20042;-86
2022/09/06 09:03:15;;;;;;;6.07;4.07;;;;;;;;;;4989529;28;20070;-85
2022/09/06 09:05:42;;;;;;;6.57;4.30;;;;;;;;;;4991701;28;20034;-79
2022/09/06 09:08:22;;;;;;;5.85;3.40;;;;;;;;;;4989932;28;20050;-76
2022/09/06 09:10:53;;;;;;;5.63;3.47;;;;;;;;;;4992176;28;20101;-83
2022/09/06 09:13:48;;;;;;;6.40;3.30;;;;;;;;;;4991463;28;20110;-77
2022/09/06 09:16:14;;;;;;;5.15;3.10;;;;;;;;;;4989582;28;20042;-85
2022/09/06 09:18:50;;;;;;;6.40;2.60;;;;;;;;;;4991233;28;20441;-77
2022/09/06 09:21:20;;;;;;;3.80;2.30;;;;;;;;;;4991240;28;20027;-84
2022/09/06 09:23:53;;;;;;;3.03;2.00;;;;;;;;;;4990894;28;20073;-80
2022/09/06 09:26:21;;;;;;;2.83;1.80;;;;;;;;;;4994915;28;20117;-80
2022/09/06 09:29:09;;;;;;;3.38;1.70;;;;;;;;;;5012796;28;20057;-74
2022/09/06 09:31:48;;;;;;;2.80;1.77;;;;;;;;;;4991931;28;20034;-77
2022/09/06 09:34:32;;;;;;;4.38;2.45;;;;;;;;;;4993098;28;20061;-77
2022/09/06 09:37:18;;;;;;;5.30;2.65;;;;;;;;;;5011267;28;20490;-77
2022/09/06 09:39:45;;;;;;;5.18;3.28;;;;;;;;;;4992752;28;20030;-74
2022/09/06 09:42:22;;;;;;;3.80;2.50;;;;;;;;;;4989727;28;20383;-74
2022/09/06 09:44:48;;;;;;;4.85;2.38;;;;;;;;;;4991168;28;20027;-85
2022/09/06 09:47:27;;;;;;;4.13;2.25;;;;;;;;;;4998064;28;20394;-74
2022/09/06 09:49:56;;;;;;;4.28;2.50;;;;;;;;;;4992759;28;20079;-79
2022/09/06 09:52:31;;;;;;;3.92;2.22;;;;;;;;;;4991569;28;20168;-85
2022/09/06 09:55:01;;;;;;;5.47;2.35;;;;;;;;;;4994498;28;20053;-78
2022/09/06 09:57:30;;;;;;;3.95;2.40;;;;;;;;;;4989626;28;20153;-76
2022/09/06 10:00:05;;;;;;;4.38;2.50;;;;;;;;;;4986859;28;20117;-79
2022/09/06 10:02:38;;;;;;;3.67;2.03;;;;;;;;;;4995188;28;20425;-78
2022/09/06 10:05:16;;;;;;;3.30;2.00;;;;;;;;;;4985485;28;20525;-77
2022/09/06 10:07:48;;;;;;;6.68;2.70;;;;;;;;;;4992093;28;20043;-78
2022/09/06 10:10:25;;;;;;;3.60;2.17;;;;;;;;;;4992637;28;20503;-78
2022/09/06 10:13:06;;;;;;;4.10;2.10;;;;;;;;;;5008986;28;20030;-86
2022/09/06 10:15:38;;;;;;;3.17;1.50;;;;;;;;;;4988002;28;20383;-85
2022/09/06 10:18:03;;;;;;;5.25;2.00;;;;;;;;;;4984877;28;20097;-78
2022/09/06 10:20:46;;;;;;;3.72;2.03;;;;;;;;;;4997243;28;20072;-76
2022/09/06 10:23:18;;;;;;;;;;;;;;;;;;4996342;28;20474;-77
2022/09/06 10:26:01;;;;;;;3.10;1.90;;;;;;;;;;4993722;28;20412;-79
2022/09/06 10:28:42;;;;;;;3.65;1.90;;;;;;;;;;5004245;28;20037;-75
2022/09/06 10:31:30;;;;;;;4.10;2.50;;;;;;;;;;5007472;28;20026;-78
2022/09/06 10:34:24;;;;;;;6.43;2.25;;;;;;;;;;4992319;28;20125;-77
2022/09/06 10:37:14;;;;;;;3.65;2.38;;;;;;;;;;4984280;28;20072;-78
2022/09/06 10:39:55;;;;;;;3.58;2.20;;;;;;;;;;5006772;28;20046;-78
2022/09/06 10:42:32;;;;;;;3.17;2.13;;;;;;;;;;4994873;28;20030;-77
2022/09/06 10:45:33;;;;;;;5.28;2.25;;;;;;;;;;4993126;28;20567;-75
2022/09/06 10:48:01;;;;;;;5.40;2.95;;;;;;;;;;5008475;28;20442;-79
2022/09/06 10:50:51;;;;;;;4.80;2.63;;;;;;;;;;4993884;28;20033;-76
2022/09/06 10:53:42;;;;;;;3.45;2.08;;;;;;;;;;4993470;28;20042;-76
2022/09/06 10:56:14;;;;;;;3.42;2.15;;;;;;;;;;4992012;28;20030;-78
2022/09/06 10:59:17;;;;;;;4.32;1.98;;;;;;;;;;4993977;28;20509;-85
2022/09/06 11:02:07;;;;;;;3.95;2.03;;;;;;;;;;4992059;28;20449;-86
2022/09/06 11:04:41;;;;;;;4.20;2.95;;;;;;;;;;4992790;28;20060;-77
2022/09/06 11:07:28;;;;;;;6.07;3.45;;;;;;;;;;5008178;28;20050;-77
2022/09/06 11:10:01;;;;;;;4.38;2.42;;;;;;;;;;4993541;28;20027;-83
2022/09/06 11:12:47;;;;;;;11.00;3.38;;;;;;;;;;4998696;28;20022;-76
2022/09/06 11:15:16;;;;;;;4.35;2.67;;;;;;;;;;4988173;28;20375;-78
2022/09/06 11:18:03;;;;;;;4.95;2.50;;;;;;;;;;4990600;28;20034;-75
2022/09/06 11:21:08;;;;;;;4.05;2.17;;;;;;;;;;4994772;28;20610;-85
2022/09/06 11:23:49;;;;;;;5.32;2.78;;;;;;;;;;4981737;28;20037;-78
2022/09/06 11:26:36;;;;;;;6.00;3.08;;;;;;;;;;4991637;28;20080;-78
2022/09/06 11:29:16;;;;;;;4.93;2.83;;;;;;;;;;5002006;28;20022;-85
2022/09/06 11:32:28;;;;;;;5.13;3.15;;;;;;;;;;5009929;28;20030;-75
2022/09/06 11:34:58;;;;;;;4.65;3.05;;;;;;;;;;4987069;28;20061;-75
2022/09/06 11:37:34;;;;;;;5.03;3.20;;;;;;;;;;4992335;28;20026;-76
2022/09/06 11:40:23;;;;;;;8.27;3.65;;;;;;;;;;4993520;28;20482;-85
2022/09/06 11:42:48;;;;;;;6.60;3.88;;;;;;;;;;4986003;28;20040;-78
2022/09/06 11:45:20;;;;;;;6.45;3.42;;;;;;;;;;5007905;28;20477;-77
2022/09/06 11:47:48;;;;;;;6.47;3.95;;;;;;;;;;5001412;28;20027;-77
2022/09/06 11:50:19;;;;;;;4.85;3.58;;;;;;;;;;4993057;28;20122;-77
2022/09/06 11:53:16;;;;;;;5.00;3.25;;;;;;;;;;4994487;28;20096;-77
2022/09/06 11:56:00;;;;;;;5.57;3.90;;;;;;;;;;4987162;28;20046;-84
2022/09/06 11:59:02;;;;;;;6.47;4.18;;;;;;;;;;5006252;28;20501;-84
2022/09/06 12:01:27;;;;;;;5.88;4.03;;;;;;;;;;4991887;28;20034;-78
2022/09/06 12:03:54;;;;;;;6.35;3.97;;;;;;;;;;4992827;28;20022;-84
2022/09/06 12:06:42;;;;;;;7.88;3.85;;;;;;;;;;4990402;28;20368;-77
2022/09/06 12:09:29;;;;;;;5.68;4.10;;;;;;;;;;4990317;28;20077;-84
2022/09/06 12:11:56;;;;;;;5.82;3.53;;;;;;;;;;4992080;28;20033;-77
2022/09/06 12:14:42;;;;;;;6.07;3.65;;;;;;;;;;4990761;28;20026;-77
2022/09/06 12:17:07;;;;;;;5.28;3.03;;;;;;;;;;4991323;28;20026;-84
2022/09/06 12:20:02;;;;;;;4.78;2.95;;;;;;;;;;4995785;28;20474;-78
2022/09/06 12:22:28;;;;;;;5.53;3.50;;;;;;;;;;5007351;28;20030;-76
2022/09/06 12:25:04;;;;;;;5.53;3.42;;;;;;;;;;5006624;28;20544;-77
2022/09/06 12:27:54;;;;;;;6.05;3.72;;;;;;;;;;4994128;28;20025;-76
2022/09/06 12:30:43;;;;;;;4.22;2.90;;;;;;;;;;4989440;28;20081;-84
2022/09/06 12:33:33;;;;;;;5.38;3.42;;;;;;;;;;4991893;28;20069;-77
2022/09/06 12:36:16;;;;;;;7.85;3.47;;;;;;;;;;4991705;28;20034;-78
2022/09/06 12:39:07;;;;;;;5.38;3.47;;;;;;;;;;4989079;28;20048;-78
2022/09/06 12:41:38;;;;;;;8.25;3.65;;;;;;;;;;4993561;28;20022;-84
2022/09/06 12:44:06;;;;;;;7.93;4.33;;;;;;;;;;5002692;28;20390;-84
2022/09/06 12:46:33;;;;;;;4.93;3.13;;;;;;;;;;4990831;28;20386;-78
2022/09/06 12:49:08;;;;;;;4.72;3.30;;;;;;;;;;5008355;28;20037;-83
2022/09/06 12:51:35;;;;;;;5.00;2.85;;;;;;;;;;4989733;28;20062;-77
2022/09/06 12:54:04;;;;;;;5.38;3.50;;;;;;;;;;5010444;28;20390;-78
2022/09/06 12:56:32;;;;;;;7.53;4.13;;;;;;;;;;4997192;28;20022;-77
2022/09/06 12:59:31;;;;;;;5.65;3.47;;;;;;;;;;4993281;28;20026;-75
2022/09/06 13:02:00;;;;;;;5.32;3.17;;;;;;;;;;4980307;28;20069;-77
2022/09/06 13:04:38;;;;;;;5.57;3.63;;;;;;;;;;5006381;28;20076;-83
2022/09/06 13:07:05;;;;;;;6.00;3.90;;;;;;;;;;4991750;28;20054;-75
2022/09/06 13:09:32;;;;;;;6.55;3.50;;;;;;;;;;5007559;28;20105;-83
2022/09/06 13:12:16;;;;;;;5.90;2.80;;;;;;;;;;4991128;28;20486;-83
2022/09/06 13:14:42;;;;;;;4.97;3.03;;;;;;;;;;4993018;28;20478;-75
2022/09/06 13:17:07;;;;;;;6.03;3.22;;;;;;;;;;4993412;28;20026;-83
2022/09/06 13:19:38;;;;;;;9.05;4.00;;;;;;;;;;5001403;28;20018;-77
2022/09/06 13:22:09;;;;;;;4.40;2.55;;;;;;;;;;5007338;28;20061;-77
2022/09/06 13:24:35;;;;;;;8.73;4.15;;;;;;;;;;4990058;28;20031;-77
2022/09/06 13:27:21;;;;;;;4.75;3.40;;;;;;;;;;5001807;28;20025;-83
2022/09/06 13:29:58;;;;;;;5.07;3.65;;;;;;;;;;4995040;28;20037;-76
2022/09/06 13:32:26;;;;;;;4.43;2.70;;;;;;;;;;4986434;28;20026;-76
2022/09/06 13:34:55;;;;;;;5.90;2.72;;;;;;;;;;4985272;28;20121;-81
2022/09/06 13:37:23;;;;;;;4.63;2.35;;;;;;;;;;4986418;28;20030;-77
2022/09/06 13:39:52;;;;;;;5.95;3.45;;;;;;;;;;4983050;28;21690;-77
2022/09/06 13:42:32;;;;;;;5.30;3.45;;;;;;;;;;4985220;28;20054;-74
2022/09/06 13:45:15;;;;;;;5.05;3.13;;;;;;;;;;4990874;28;20029;-75
2022/09/06 13:47:40;;;;;;;;;;;;;;;;;;4990943;28;20113;-76
2022/09/06 13:50:07;;;;;;;4.40;2.80;;;;;;;;;;4991251;28;19996;-76
2022/09/06 13:52:32;;;;;;;8.05;4.43;;;;;;;;;;4986752;28;20490;-76
2022/09/06 13:54:58;;;;;;;6.68;4.88;;;;;;;;;;4988967;28;20037;-82
2022/09/06 13:57:24;;;;;;;7.28;4.50;;;;;;;;;;4988319;28;20054;-76
2022/09/06 13:59:49;;;;;;;4.80;2.80;;;;;;;;;;4991589;28;20113;-76
2022/09/06 14:02:16;;;;;;;7.03;3.13;;;;;;;;;;4989892;28;20034;-75
2022/09/06 14:04:41;;;;;;;6.68;3.53;;;;;;;;;;4983724;28;20109;-81
2022/09/06 14:07:07;;;;;;;6.22;3.17;;;;;;;;;;4998028;28;20140;-75
2022/09/06 14:09:33;;;;;;;5.88;3.15;;;;;;;;;;4983874;28;20030;-76
2022/09/06 14:11:59;;;;;;;6.13;3.58;;;;;;;;;;5009376;28;20037;-76
2022/09/06 14:14:24;;;;;;;6.50;3.95;;;;;;;;;;4991323;28;20062;-76
2022/09/06 14:16:50;;;;;;;5.85;4.00;;;;;;;;;;4993131;28;20026;-74
2022/09/06 14:19:16;;;;;;;5.25;3.45;;;;;;;;;;4992608;28;20035;-76
2022/09/06 14:21:42;;;;;;;7.65;4.15;;;;;;;;;;5009144;28;20088;-76
2022/09/06 14:24:07;;;;;;;6.38;3.38;;;;;;;;;;5002161;28;20125;-76
2022/09/06 14:26:34;;;;;;;6.28;3.03;;;;;;;;;;4989694;28;20109;-76
2022/09/06 14:29:00;;;;;;;6.15;2.90;;;;;;;;;;4984955;28;20466;-82
2022/09/06 14:31:26;;;;;;;3.05;2.20;;;;;;;;;;4988333;28;20041;-76
2022/09/06 14:33:53;;;;;;;4.35;2.10;;;;;;;;;;4998353;28;20085;-81
2022/09/06 14:36:21;;;;;;;3.25;1.70;;;;;;;;;;4993005;28;20026;-76
2022/09/06 14:38:48;;;;;;;2.25;1.20;;;;;;;;;;4992013;28;20026;-74
2022/09/06 14:41:14;;;;;;;2.28;1.20;;;;;;;;;;5001863;28;20041;-74
2022/09/06 14:43:47;;;;;;;1.95;0.98;;;;;;;;;;4980013;28;20388;-75
2022/09/06 14:46:14;;;;;;;1.67;0.85;;;;;;;;;;4984518;28;20438;-77
2022/09/06 14:48:43;;;;;;;2.08;1.10;;;;;;;;;;4980703;28;20740;-77
2022/09/06 14:51:22;;;;;;;1.65;1.10;;;;;;;;;;4997063;28;20026;-81
2022/09/06 14:53:54;;;;;;;2.63;1.20;;;;;;;;;;4995465;28;20033;-77
2022/09/06 14:56:21;;;;;;;2.83;1.20;;;;;;;;;;4979392;28;20243;-78
2022/09/06 14:58:47;;;;;;;2.15;1.30;;;;;;;;;;4998417;28;20081;-76
2022/09/06 15:01:16;;;;;;;4.65;1.40;;;;;;;;;;4995559;28;20098;-77
2022/09/06 15:03:45;;;;;;;3.15;1.30;;;;;;;;;;4982630;28;20038;-81
2022/09/06 15:06:11;;;;;;;2.60;1.25;;;;;;;;;;4989300;28;20026;-77